Time;durP1;ratioP1;P1;durP2;ratioP2;P2;SDS_P1;SDS_P2;PMS_P1;PMS_P2;Temp;Humidity;BMP_temperature;BMP_pressure;BME280_temperature;BME280_humidity;BME280_pressure;Samples;Min_cycle;Max_cycle;Signal;HPM_P1;HPM_P2
2023/12/15 00:00:59;;;;;;;5.53;4.32;;;;;;;;;;5062511;28;43178;-75
2023/12/15 00:03:27;;;;;;;5.97;4.00;;;;;;;;;;5068128;28;39739;-75
2023/12/15 00:05:55;;;;;;;3.80;3.42;;;;;;;;;;5067576;28;41575;-81
2023/12/15 00:08:23;;;;;;;8.43;4.95;;;;;;;;;;5065712;28;39998;-81
2023/12/15 00:10:51;;;;;;;5.07;3.80;;;;;;;;;;5065518;28;41191;-79
2023/12/15 00:13:19;;;;;;;7.50;4.80;;;;;;;;;;5046820;28;40781;-80
2023/12/15 00:15:47;;;;;;;7.18;3.38;;;;;;;;;;5063165;28;40030;-80
2023/12/15 00:18:16;;;;;;;7.75;3.65;;;;;;;;;;5063597;28;41552;-77
2023/12/15 00:20:45;;;;;;;5.78;4.43;;;;;;;;;;5062966;28;42091;-79
2023/12/15 00:23:13;;;;;;;4.75;3.65;;;;;;;;;;5065200;28;39861;-78
2023/12/15 00:25:41;;;;;;;4.88;4.00;;;;;;;;;;5064321;28;41658;-75
2023/12/15 00:28:09;;;;;;;7.03;4.45;;;;;;;;;;5064765;28;42408;-79
2023/12/15 00:30:36;;;;;;;5.93;4.20;;;;;;;;;;5048252;28;40389;-79
2023/12/15 00:33:04;;;;;;;5.70;4.40;;;;;;;;;;5065262;28;42630;-77
2023/12/15 00:35:34;;;;;;;7.60;5.03;;;;;;;;;;5064301;28;41944;-81
2023/12/15 00:38:02;;;;;;;9.13;4.90;;;;;;;;;;5063737;28;40647;-73
2023/12/15 00:40:30;;;;;;;6.97;4.47;;;;;;;;;;5064951;28;41862;-77
2023/12/15 00:42:58;;;;;;;5.72;4.63;;;;;;;;;;5061485;28;40210;-75
2023/12/15 00:45:26;;;;;;;5.47;3.65;;;;;;;;;;5064389;28;42621;-76
2023/12/15 00:47:54;;;;;;;6.45;4.15;;;;;;;;;;5053842;28;41717;-79
2023/12/15 00:50:22;;;;;;;7.20;4.05;;;;;;;;;;5065382;28;40388;-78
2023/12/15 00:52:51;;;;;;;5.97;3.90;;;;;;;;;;5066457;28;43796;-77
2023/12/15 00:55:19;;;;;;;5.60;3.25;;;;;;;;;;5065835;28;40941;-77
2023/12/15 00:57:47;;;;;;;6.25;3.75;;;;;;;;;;5064349;28;42184;-77
2023/12/15 01:00:15;;;;;;;7.40;4.90;;;;;;;;;;5063561;28;43227;-77
2023/12/15 01:02:43;;;;;;;8.52;3.60;;;;;;;;;;5063496;28;40746;-77
2023/12/15 01:05:11;;;;;;;5.47;4.70;;;;;;;;;;5064309;28;41556;-77
2023/12/15 01:07:39;;;;;;;4.70;3.80;;;;;;;;;;5041895;28;40385;-77
2023/12/15 01:10:09;;;;;;;7.57;5.35;;;;;;;;;;5045731;28;39312;-77
2023/12/15 01:12:37;;;;;;;5.65;4.20;;;;;;;;;;5065222;28;41665;-77
2023/12/15 01:15:06;;;;;;;6.30;4.93;;;;;;;;;;5064827;28;40501;-77
2023/12/15 01:17:33;;;;;;;7.90;5.35;;;;;;;;;;5056283;28;42536;-77
2023/12/15 01:20:02;;;;;;;5.88;3.55;;;;;;;;;;5064489;28;42558;-77
2023/12/15 01:22:30;;;;;;;7.85;4.93;;;;;;;;;;5066946;28;40317;-77
2023/12/15 01:24:58;;;;;;;5.80;4.60;;;;;;;;;;5064629;28;42261;-77
2023/12/15 01:27:27;;;;;;;7.63;3.70;;;;;;;;;;5055648;28;42251;-77
2023/12/15 01:29:55;;;;;;;4.28;3.22;;;;;;;;;;5054750;28;41099;-77
2023/12/15 01:32:23;;;;;;;9.80;6.30;;;;;;;;;;5048953;28;42356;-77
2023/12/15 01:34:51;;;;;;;6.30;5.25;;;;;;;;;;5049114;28;42120;-77
2023/12/15 01:37:19;;;;;;;4.95;3.05;;;;;;;;;;5066492;28;41620;-77
2023/12/15 01:39:47;;;;;;;8.73;5.40;;;;;;;;;;5065701;28;42713;-77
2023/12/15 01:42:15;;;;;;;5.40;3.45;;;;;;;;;;5057884;28;40228;-76
2023/12/15 01:44:45;;;;;;;8.82;6.85;;;;;;;;;;5064453;28;41743;-77
2023/12/15 01:47:13;;;;;;;8.40;6.50;;;;;;;;;;5076512;28;42587;-77
2023/12/15 01:49:41;;;;;;;7.22;4.18;;;;;;;;;;5062313;28;40279;-77
2023/12/15 01:52:09;;;;;;;6.10;4.45;;;;;;;;;;5034913;28;40769;-77
2023/12/15 01:54:37;;;;;;;4.70;3.70;;;;;;;;;;5065222;28;41607;-77
2023/12/15 01:57:05;;;;;;;5.80;3.55;;;;;;;;;;5083502;28;41791;-77
2023/12/15 01:59:41;;;;;;;7.15;5.22;;;;;;;;;;5067973;28;41615;-77
2023/12/15 02:02:10;;;;;;;7.68;4.78;;;;;;;;;;5067554;28;41450;-77
2023/12/15 02:04:39;;;;;;;6.97;4.13;;;;;;;;;;5080318;28;41210;-77
2023/12/15 02:07:07;;;;;;;11.95;8.55;;;;;;;;;;5065464;28;42713;-77
2023/12/15 02:09:36;;;;;;;7.55;5.40;;;;;;;;;;5068955;28;20578;-77
2023/12/15 02:12:04;;;;;;;7.35;5.53;;;;;;;;;;5069210;28;42365;-77
2023/12/15 02:14:32;;;;;;;8.38;5.30;;;;;;;;;;5058785;28;42656;-77
2023/12/15 02:17:00;;;;;;;8.93;5.70;;;;;;;;;;5068786;28;41541;-77
2023/12/15 02:19:30;;;;;;;7.38;5.32;;;;;;;;;;5067735;28;43142;-77
2023/12/15 02:21:58;;;;;;;7.78;5.15;;;;;;;;;;5068205;28;40385;-77
2023/12/15 02:24:27;;;;;;;8.82;7.03;;;;;;;;;;5067162;28;42677;-77
2023/12/15 02:26:55;;;;;;;15.05;10.02;;;;;;;;;;5068197;28;43261;-77
2023/12/15 02:29:23;;;;;;;7.68;6.55;;;;;;;;;;5072429;28;41123;-77
2023/12/15 02:31:51;;;;;;;8.35;5.90;;;;;;;;;;5089325;28;42444;-77
2023/12/15 02:34:19;;;;;;;6.70;4.70;;;;;;;;;;5062858;28;42136;-77
2023/12/15 02:36:49;;;;;;;7.40;6.00;;;;;;;;;;5062762;28;40434;-77
2023/12/15 02:39:17;;;;;;;8.45;6.63;;;;;;;;;;5059816;28;41630;-77
2023/12/15 02:41:46;;;;;;;9.30;5.40;;;;;;;;;;5060845;28;42318;-77
2023/12/15 02:44:14;;;;;;;8.10;5.47;;;;;;;;;;5059869;28;41775;-77
2023/12/15 02:46:42;;;;;;;6.00;4.85;;;;;;;;;;5068723;28;43053;-77
2023/12/15 02:49:10;;;;;;;6.50;5.65;;;;;;;;;;5066160;28;40368;-77
2023/12/15 02:51:38;;;;;;;6.38;4.80;;;;;;;;;;5082847;28;41551;-77
2023/12/15 02:54:06;;;;;;;9.07;6.50;;;;;;;;;;5066425;28;42777;-77
2023/12/15 02:56:34;;;;;;;7.53;5.53;;;;;;;;;;5067940;28;40043;-77
2023/12/15 02:59:03;;;;;;;7.38;5.68;;;;;;;;;;5074602;28;41323;-77
2023/12/15 03:01:32;;;;;;;9.73;6.97;;;;;;;;;;5068989;28;42780;-77
2023/12/15 03:04:00;;;;;;;10.02;5.90;;;;;;;;;;5065174;28;41837;-77
2023/12/15 03:06:28;;;;;;;9.95;6.95;;;;;;;;;;5063236;28;42874;-77
2023/12/15 03:08:55;;;;;;;13.98;9.73;;;;;;;;;;5066780;28;40431;-77
2023/12/15 03:11:23;;;;;;;14.23;10.18;;;;;;;;;;5049230;28;40770;-77
2023/12/15 03:13:51;;;;;;;11.45;7.15;;;;;;;;;;5066461;28;42829;-77
2023/12/15 03:16:22;;;;;;;6.90;5.43;;;;;;;;;;5077759;28;40284;-77
2023/12/15 03:18:50;;;;;;;11.95;8.57;;;;;;;;;;5083923;28;42563;-77
2023/12/15 03:21:18;;;;;;;7.65;5.55;;;;;;;;;;5068103;28;42054;-77
2023/12/15 03:23:46;;;;;;;15.32;11.65;;;;;;;;;;5066227;28;39970;-77
2023/12/15 03:26:14;;;;;;;9.93;7.05;;;;;;;;;;5068306;28;41865;-77
2023/12/15 03:28:42;;;;;;;11.23;8.43;;;;;;;;;;5060884;28;41388;-77
2023/12/15 03:31:09;;;;;;;8.95;6.55;;;;;;;;;;5053335;28;41351;-77
2023/12/15 03:33:39;;;;;;;18.40;12.13;;;;;;;;;;5066589;28;41880;-77
2023/12/15 03:36:07;;;;;;;7.18;5.88;;;;;;;;;;5048695;28;38921;-77
2023/12/15 03:38:35;;;;;;;9.60;7.32;;;;;;;;;;5066136;28;41544;-77
2023/12/15 03:41:03;;;;;;;9.38;7.32;;;;;;;;;;5071734;28;42243;-77
2023/12/15 03:43:31;;;;;;;9.98;7.10;;;;;;;;;;5076771;28;39851;-77
2023/12/15 03:46:01;;;;;;;8.43;6.15;;;;;;;;;;5055419;28;42624;-77
2023/12/15 03:48:29;;;;;;;20.85;14.18;;;;;;;;;;5069120;28;40349;-77
2023/12/15 03:50:58;;;;;;;10.05;7.35;;;;;;;;;;5061887;28;42296;-77
2023/12/15 03:53:26;;;;;;;7.75;6.00;;;;;;;;;;5052125;28;41968;-77
2023/12/15 03:55:54;;;;;;;9.10;7.03;;;;;;;;;;5065855;28;41022;-77
2023/12/15 03:58:22;;;;;;;12.93;9.30;;;;;;;;;;5073079;28;40867;-77
2023/12/15 04:00:51;;;;;;;13.50;8.98;;;;;;;;;;5058473;28;41438;-77
2023/12/15 04:03:20;;;;;;;11.60;8.15;;;;;;;;;;5061175;28;40951;-77
2023/12/15 04:05:48;;;;;;;13.93;7.72;;;;;;;;;;5056259;28;41758;-77
2023/12/15 04:08:18;;;;;;;12.75;8.95;;;;;;;;;;5079336;28;40299;-77
2023/12/15 04:10:45;;;;;;;10.32;6.68;;;;;;;;;;5069024;28;41881;-77
2023/12/15 04:13:13;;;;;;;21.67;12.27;;;;;;;;;;5065568;28;42388;-76
2023/12/15 04:15:42;;;;;;;12.68;9.25;;;;;;;;;;5080853;28;39990;-77
2023/12/15 04:18:10;;;;;;;10.50;7.28;;;;;;;;;;5064345;28;42069;-77
2023/12/15 04:20:38;;;;;;;11.63;7.35;;;;;;;;;;5066623;28;42577;-77
2023/12/15 04:23:06;;;;;;;12.13;8.38;;;;;;;;;;5064030;28;40239;-76
2023/12/15 04:25:35;;;;;;;18.83;13.20;;;;;;;;;;5053872;28;42726;-77
2023/12/15 04:28:03;;;;;;;9.48;6.88;;;;;;;;;;5065130;28;42101;-77
2023/12/15 04:30:31;;;;;;;11.77;8.23;;;;;;;;;;5067819;28;42628;-76
2023/12/15 04:32:59;;;;;;;10.45;7.15;;;;;;;;;;5070368;28;42097;-77
2023/12/15 04:35:27;;;;;;;13.98;9.70;;;;;;;;;;5074721;28;40167;-76
2023/12/15 04:37:55;;;;;;;14.10;9.38;;;;;;;;;;5069074;28;41503;-77
2023/12/15 04:40:23;;;;;;;10.95;7.85;;;;;;;;;;5057985;28;41220;-77
2023/12/15 04:42:52;;;;;;;10.55;7.18;;;;;;;;;;5064911;28;40639;-77
2023/12/15 04:45:20;;;;;;;9.32;7.18;;;;;;;;;;5066963;28;42708;-76
2023/12/15 04:47:51;;;;;;;11.38;7.85;;;;;;;;;;5055187;28;42161;-77
2023/12/15 04:50:20;;;;;;;11.10;7.80;;;;;;;;;;5067118;28;40677;-77
2023/12/15 04:52:48;;;;;;;11.20;8.05;;;;;;;;;;5064874;28;42495;-76
2023/12/15 04:55:16;;;;;;;11.25;7.78;;;;;;;;;;5066054;28;40137;-76
2023/12/15 04:57:43;;;;;;;13.63;8.02;;;;;;;;;;5064567;28;42389;-76
2023/12/15 05:00:18;;;;;;;19.15;13.48;;;;;;;;;;5064379;28;43211;-77
2023/12/15 05:02:47;;;;;;;12.45;9.05;;;;;;;;;;5063797;28;40998;-76
2023/12/15 05:05:15;;;;;;;14.00;9.43;;;;;;;;;;5066492;28;42529;-76
2023/12/15 05:07:43;;;;;;;15.20;10.57;;;;;;;;;;5059395;28;40865;-76
2023/12/15 05:10:11;;;;;;;14.45;10.18;;;;;;;;;;5080436;28;41323;-77
2023/12/15 05:12:39;;;;;;;11.70;8.32;;;;;;;;;;5046220;28;40291;-76
2023/12/15 05:15:07;;;;;;;17.98;12.25;;;;;;;;;;5065931;28;41425;-77
2023/12/15 05:17:37;;;;;;;13.20;9.10;;;;;;;;;;5070514;28;41662;-76
2023/12/15 05:20:06;;;;;;;12.48;8.30;;;;;;;;;;5073867;28;42723;-77
2023/12/15 05:22:34;;;;;;;15.80;11.27;;;;;;;;;;5070200;28;40607;-77
2023/12/15 05:25:02;;;;;;;11.70;7.70;;;;;;;;;;5074328;28;41274;-76
2023/12/15 05:27:30;;;;;;;11.93;7.88;;;;;;;;;;5083083;28;43413;-76
2023/12/15 05:29:58;;;;;;;15.00;9.80;;;;;;;;;;5078280;28;40935;-77
2023/12/15 05:32:26;;;;;;;11.57;8.43;;;;;;;;;;5079195;28;42676;-76
2023/12/15 05:34:55;;;;;;;15.05;9.77;;;;;;;;;;5059116;28;43134;-77
2023/12/15 05:37:23;;;;;;;13.57;9.10;;;;;;;;;;5068124;28;43308;-77
2023/12/15 05:39:51;;;;;;;10.90;7.57;;;;;;;;;;5089844;28;42876;-77
2023/12/15 05:42:19;;;;;;;15.20;9.48;;;;;;;;;;5053597;28;41391;-77
2023/12/15 05:44:47;;;;;;;12.23;8.93;;;;;;;;;;5060085;28;41678;-77
2023/12/15 05:47:15;;;;;;;14.60;9.27;;;;;;;;;;5067786;28;43103;-76
2023/12/15 05:49:43;;;;;;;12.55;8.75;;;;;;;;;;5073905;28;39984;-77
2023/12/15 05:52:14;;;;;;;11.05;8.10;;;;;;;;;;5067963;28;41350;-76
2023/12/15 05:54:42;;;;;;;14.00;9.65;;;;;;;;;;5066223;28;42047;-76
2023/12/15 05:57:10;;;;;;;14.10;9.27;;;;;;;;;;5068250;28;40151;-76
2023/12/15 05:59:41;;;;;;;13.85;9.20;;;;;;;;;;5062495;28;42838;-76
2023/12/15 06:02:10;;;;;;;13.35;8.88;;;;;;;;;;5057646;28;39894;-76
2023/12/15 06:04:38;;;;;;;15.90;10.30;;;;;;;;;;5055597;28;41582;-76
2023/12/15 06:07:05;;;;;;;13.93;9.93;;;;;;;;;;5066710;28;42261;-76
2023/12/15 06:09:35;;;;;;;11.48;8.50;;;;;;;;;;5067998;28;40378;-77
2023/12/15 06:12:05;;;;;;;11.52;8.27;;;;;;;;;;5059728;28;41580;-76
2023/12/15 06:14:33;;;;;;;15.57;10.20;;;;;;;;;;5069278;28;41740;-77
2023/12/15 06:17:05;;;;;;;11.00;8.32;;;;;;;;;;5081567;28;40400;-77
2023/12/15 06:19:34;;;;;;;14.77;10.23;;;;;;;;;;5068160;28;42388;-77
2023/12/15 06:22:01;;;;;;;13.70;9.00;;;;;;;;;;5080947;28;40153;-76
2023/12/15 06:24:29;;;;;;;19.25;10.10;;;;;;;;;;5069630;28;42459;-76
2023/12/15 06:26:59;;;;;;;15.90;9.85;;;;;;;;;;5053082;28;42100;-77
2023/12/15 06:29:27;;;;;;;13.88;10.30;;;;;;;;;;5067438;28;40326;-77
2023/12/15 06:31:55;;;;;;;16.42;10.13;;;;;;;;;;5066748;28;42515;-76
2023/12/15 06:34:23;;;;;;;13.15;9.02;;;;;;;;;;5036523;28;40296;-76
2023/12/15 06:36:51;;;;;;;12.82;8.95;;;;;;;;;;5063332;28;39936;-76
2023/12/15 06:39:18;;;;;;;13.48;9.98;;;;;;;;;;5065145;28;41429;-77
2023/12/15 06:41:46;;;;;;;14.10;9.07;;;;;;;;;;5065466;28;38876;-76
2023/12/15 06:44:16;;;;;;;13.43;8.63;;;;;;;;;;5070606;28;41712;-77
2023/12/15 06:46:45;;;;;;;15.82;11.45;;;;;;;;;;5077586;28;41938;-76
2023/12/15 06:49:14;;;;;;;11.00;8.30;;;;;;;;;;5049275;28;40137;-77
2023/12/15 06:51:45;;;;;;;12.55;9.20;;;;;;;;;;5074056;28;41678;-77
2023/12/15 06:54:13;;;;;;;13.48;9.68;;;;;;;;;;5074637;28;41640;-77
2023/12/15 06:56:41;;;;;;;17.67;10.07;;;;;;;;;;5067009;28;41049;-77
2023/12/15 06:59:09;;;;;;;14.48;9.95;;;;;;;;;;5080117;28;42233;-77
2023/12/15 07:01:38;;;;;;;14.70;9.40;;;;;;;;;;5065776;28;39921;-77
2023/12/15 07:04:06;;;;;;;14.25;9.07;;;;;;;;;;5068846;28;41607;-77
2023/12/15 07:06:37;;;;;;;18.02;10.35;;;;;;;;;;5065106;28;41636;-79
2023/12/15 07:09:05;;;;;;;13.63;9.25;;;;;;;;;;5067198;28;39058;-78
2023/12/15 07:11:33;;;;;;;14.38;10.90;;;;;;;;;;5066056;28;41630;-79
2023/12/15 07:14:02;;;;;;;18.95;10.93;;;;;;;;;;5067008;28;42842;-77
2023/12/15 07:16:30;;;;;;;16.52;11.32;;;;;;;;;;5059987;28;39889;-77
2023/12/15 07:18:59;;;;;;;17.80;10.98;;;;;;;;;;5067791;28;42539;-80
2023/12/15 07:21:27;;;;;;;19.52;11.85;;;;;;;;;;5048492;28;40523;-77
2023/12/15 07:23:55;;;;;;;14.32;9.82;;;;;;;;;;5042985;28;38956;-76
2023/12/15 07:26:23;;;;;;;12.27;9.55;;;;;;;;;;5060452;28;43013;-77
2023/12/15 07:28:51;;;;;;;15.38;10.98;;;;;;;;;;5068279;28;41057;-77
2023/12/15 07:31:19;;;;;;;12.48;9.77;;;;;;;;;;5063722;28;41568;-77
2023/12/15 07:33:47;;;;;;;13.52;9.35;;;;;;;;;;5067202;28;42039;-77
2023/12/15 07:36:17;;;;;;;12.18;9.75;;;;;;;;;;5068241;28;41320;-77
2023/12/15 07:38:45;;;;;;;12.80;9.77;;;;;;;;;;5063173;28;42575;-77
2023/12/15 07:41:13;;;;;;;11.95;8.75;;;;;;;;;;5065485;28;43097;-77
2023/12/15 07:43:41;;;;;;;12.43;8.77;;;;;;;;;;5065291;28;40211;-77
2023/12/15 07:46:15;;;;;;;13.43;8.80;;;;;;;;;;5064694;28;42108;-77
2023/12/15 07:48:43;;;;;;;14.52;9.43;;;;;;;;;;5064077;28;40442;-77
2023/12/15 07:51:17;;;;;;;12.73;9.32;;;;;;;;;;5048999;28;41748;-77
2023/12/15 07:53:46;;;;;;;13.10;8.25;;;;;;;;;;5067198;28;42663;-77
2023/12/15 07:56:21;;;;;;;14.20;8.52;;;;;;;;;;5064914;28;40268;-77
2023/12/15 07:58:49;;;;;;;11.70;8.23;;;;;;;;;;5066579;28;41864;-77
2023/12/15 08:01:18;;;;;;;15.15;8.75;;;;;;;;;;5064985;28;43129;-77
2023/12/15 08:03:46;;;;;;;11.55;9.07;;;;;;;;;;5063058;28;42366;-76
2023/12/15 08:06:14;;;;;;;19.90;12.10;;;;;;;;;;5063812;28;41629;-76
2023/12/15 08:08:43;;;;;;;16.83;11.30;;;;;;;;;;5067550;28;35003;-74
2023/12/15 08:11:12;;;;;;;16.38;12.05;;;;;;;;;;5064415;28;41350;-75
2023/12/15 08:13:41;;;;;;;13.10;8.30;;;;;;;;;;5066142;28;42113;-74
2023/12/15 08:16:09;;;;;;;22.33;13.45;;;;;;;;;;5069835;28;40449;-75
2023/12/15 08:18:42;;;;;;;15.73;12.43;;;;;;;;;;5060947;28;41251;-75
2023/12/15 08:21:10;;;;;;;21.48;14.30;;;;;;;;;;5059126;28;42069;-75
2023/12/15 08:23:38;;;;;;;15.95;10.40;;;;;;;;;;5060855;28;40724;-75
2023/12/15 08:26:08;;;;;;;17.48;11.38;;;;;;;;;;5059452;28;41738;-75
2023/12/15 08:28:36;;;;;;;16.90;11.63;;;;;;;;;;5065854;28;41669;-74
2023/12/15 08:31:04;;;;;;;14.40;10.18;;;;;;;;;;5061472;28;41278;-76
2023/12/15 08:33:32;;;;;;;14.98;8.60;;;;;;;;;;5065544;28;43063;-75
2023/12/15 08:36:00;;;;;;;13.73;9.07;;;;;;;;;;5059846;28;40361;-74
2023/12/15 08:38:28;;;;;;;14.68;10.13;;;;;;;;;;5056267;28;41480;-75
2023/12/15 08:40:57;;;;;;;16.50;10.25;;;;;;;;;;5049428;28;41995;-75
2023/12/15 08:43:26;;;;;;;15.68;10.85;;;;;;;;;;5057771;28;39868;-74
2023/12/15 08:45:54;;;;;;;18.42;11.55;;;;;;;;;;5062926;28;41638;-73
2023/12/15 08:48:22;;;;;;;14.25;10.68;;;;;;;;;;5065097;28;42228;-74
2023/12/15 08:50:50;;;;;;;16.00;10.85;;;;;;;;;;5056515;28;41124;-75
2023/12/15 08:53:19;;;;;;;19.00;11.32;;;;;;;;;;5051406;28;41503;-74
2023/12/15 08:55:47;;;;;;;14.82;10.30;;;;;;;;;;5052348;28;38914;-75
2023/12/15 08:58:15;;;;;;;14.07;10.35;;;;;;;;;;5066187;28;42594;-75
2023/12/15 09:00:44;;;;;;;14.60;10.38;;;;;;;;;;5064189;28;42337;-74
2023/12/15 09:03:12;;;;;;;14.73;10.90;;;;;;;;;;5065676;28;40457;-72
2023/12/15 09:05:40;;;;;;;14.38;9.75;;;;;;;;;;5064183;28;42646;-72
2023/12/15 09:08:13;;;;;;;13.57;10.35;;;;;;;;;;5063194;28;41977;-74
2023/12/15 09:10:43;;;;;;;15.02;9.68;;;;;;;;;;5066677;28;41508;-73
2023/12/15 09:13:11;;;;;;;17.77;12.20;;;;;;;;;;5066099;28;41620;-73
2023/12/15 09:15:41;;;;;;;14.50;9.70;;;;;;;;;;5070565;28;40447;-73
2023/12/15 09:18:10;;;;;;;15.40;10.57;;;;;;;;;;5074920;28;42585;-72
2023/12/15 09:20:38;;;;;;;18.40;11.50;;;;;;;;;;5069961;28;42096;-71
2023/12/15 09:23:07;;;;;;;13.73;8.40;;;;;;;;;;5074845;28;40622;-71
2023/12/15 09:25:35;;;;;;;15.50;9.82;;;;;;;;;;5066230;28;41777;-72
2023/12/15 09:28:05;;;;;;;12.13;7.95;;;;;;;;;;5054547;28;41986;-71
2023/12/15 09:30:33;;;;;;;15.02;10.18;;;;;;;;;;5070934;28;40295;-71
2023/12/15 09:33:01;;;;;;;13.27;9.23;;;;;;;;;;5061094;28;42562;-73
2023/12/15 09:35:31;;;;;;;13.57;9.10;;;;;;;;;;5034435;28;40509;-74
2023/12/15 09:37:59;;;;;;;13.80;9.43;;;;;;;;;;5044766;28;41765;-75
2023/12/15 09:40:27;;;;;;;13.18;9.15;;;;;;;;;;5058703;28;43796;-75
2023/12/15 09:42:55;;;;;;;15.00;8.65;;;;;;;;;;5064765;28;42160;-72
2023/12/15 09:45:23;;;;;;;16.20;9.85;;;;;;;;;;5066761;28;41684;-72
2023/12/15 09:47:51;;;;;;;16.20;8.75;;;;;;;;;;5075728;28;41681;-72
2023/12/15 09:50:20;;;;;;;16.10;10.27;;;;;;;;;;5054346;28;41467;-72
2023/12/15 09:52:52;;;;;;;11.95;8.60;;;;;;;;;;5054713;28;41647;-72
2023/12/15 09:55:20;;;;;;;9.60;7.78;;;;;;;;;;5053150;28;42866;-73
2023/12/15 09:57:49;;;;;;;14.50;9.60;;;;;;;;;;5057139;28;39843;-72
2023/12/15 10:00:17;;;;;;;12.90;8.57;;;;;;;;;;5063917;28;41888;-72
2023/12/15 10:02:45;;;;;;;16.95;9.60;;;;;;;;;;5058625;28;40237;-72
2023/12/15 10:05:14;;;;;;;12.93;8.48;;;;;;;;;;5055412;28;43129;-72
2023/12/15 10:07:42;;;;;;;11.82;7.80;;;;;;;;;;5059929;28;43120;-73
2023/12/15 10:10:11;;;;;;;17.27;8.98;;;;;;;;;;5047895;28;39524;-73
2023/12/15 10:12:39;;;;;;;17.00;10.40;;;;;;;;;;5065223;28;42127;-74
2023/12/15 10:15:07;;;;;;;9.05;6.88;;;;;;;;;;5065570;28;42255;-75
2023/12/15 10:17:35;;;;;;;13.35;8.57;;;;;;;;;;5061935;28;41449;-75
2023/12/15 10:20:08;;;;;;;11.48;8.40;;;;;;;;;;5062435;28;43820;-75
2023/12/15 10:22:38;;;;;;;12.52;7.63;;;;;;;;;;5050235;28;39950;-74
2023/12/15 10:25:16;;;;;;;13.20;8.50;;;;;;;;;;5065379;28;40765;-74
2023/12/15 10:27:44;;;;;;;11.02;7.75;;;;;;;;;;5065843;28;42031;-74
2023/12/15 10:30:13;;;;;;;11.50;8.50;;;;;;;;;;5067822;28;40312;-75
2023/12/15 10:32:41;;;;;;;13.43;8.00;;;;;;;;;;5048530;28;41001;-74
2023/12/15 10:35:10;;;;;;;12.35;7.63;;;;;;;;;;5067776;28;41566;-75
2023/12/15 10:37:38;;;;;;;9.45;7.03;;;;;;;;;;5067751;28;40467;-74
2023/12/15 10:40:07;;;;;;;10.82;7.82;;;;;;;;;;5059642;28;41483;-74
2023/12/15 10:42:36;;;;;;;9.13;6.97;;;;;;;;;;5063560;28;40895;-74
2023/12/15 10:45:05;;;;;;;9.75;6.85;;;;;;;;;;5067578;28;41337;-75
2023/12/15 10:47:33;;;;;;;9.43;6.70;;;;;;;;;;5067451;28;42070;-75
2023/12/15 10:50:02;;;;;;;10.88;6.88;;;;;;;;;;5061519;28;40922;-74
2023/12/15 10:52:33;;;;;;;11.52;8.45;;;;;;;;;;5049537;28;41470;-74
2023/12/15 10:55:03;;;;;;;8.18;6.20;;;;;;;;;;5064227;28;42196;-74
2023/12/15 10:57:31;;;;;;;8.57;5.97;;;;;;;;;;5068370;28;42929;-75
2023/12/15 11:00:02;;;;;;;11.02;7.20;;;;;;;;;;5061030;28;41426;-75
2023/12/15 11:02:31;;;;;;;10.07;6.47;;;;;;;;;;5059698;28;42668;-75
2023/12/15 11:04:59;;;;;;;14.02;6.63;;;;;;;;;;5066428;28;42616;-75
2023/12/15 11:07:28;;;;;;;11.00;7.13;;;;;;;;;;5068170;28;42710;-75
2023/12/15 11:09:56;;;;;;;9.43;6.22;;;;;;;;;;5067829;28;40403;-72
2023/12/15 11:12:29;;;;;;;11.93;7.00;;;;;;;;;;5062247;28;41497;-72
2023/12/15 11:14:58;;;;;;;11.82;7.38;;;;;;;;;;5062100;28;42306;-72
2023/12/15 11:17:27;;;;;;;10.98;6.43;;;;;;;;;;5067955;28;40239;-71
2023/12/15 11:20:06;;;;;;;10.18;6.00;;;;;;;;;;5054032;28;41279;-72
2023/12/15 11:22:43;;;;;;;7.90;5.13;;;;;;;;;;5052516;28;41546;-72
2023/12/15 11:25:18;;;;;;;9.65;5.47;;;;;;;;;;5053094;28;40256;-72
2023/12/15 11:27:58;;;;;;;8.93;5.95;;;;;;;;;;5053255;28;42923;-72
2023/12/15 11:30:30;;;;;;;12.65;5.88;;;;;;;;;;5060031;28;40591;-72
2023/12/15 11:32:59;;;;;;;10.40;5.50;;;;;;;;;;5068453;28;41708;-73
2023/12/15 11:35:29;;;;;;;11.27;6.88;;;;;;;;;;5066474;28;41748;-73
2023/12/15 11:37:58;;;;;;;14.10;6.10;;;;;;;;;;5056518;28;40115;-73
2023/12/15 11:40:29;;;;;;;9.73;5.35;;;;;;;;;;5053923;28;41514;-73
2023/12/15 11:42:57;;;;;;;12.85;5.75;;;;;;;;;;5062384;28;41677;-73
2023/12/15 11:45:27;;;;;;;7.65;5.00;;;;;;;;;;5066202;28;39544;-72
2023/12/15 11:47:54;;;;;;;14.27;6.25;;;;;;;;;;5052241;28;42490;-75
2023/12/15 11:50:23;;;;;;;7.65;5.10;;;;;;;;;;5057886;28;40172;-72
2023/12/15 11:52:51;;;;;;;9.70;4.43;;;;;;;;;;5058386;28;42127;-72
2023/12/15 11:55:19;;;;;;;9.55;4.85;;;;;;;;;;5066079;28;42184;-72
2023/12/15 11:57:47;;;;;;;8.07;4.53;;;;;;;;;;5047423;28;39050;-71
2023/12/15 12:00:19;;;;;;;9.55;4.93;;;;;;;;;;5057606;28;41592;-72
2023/12/15 12:02:48;;;;;;;8.38;4.65;;;;;;;;;;5064719;28;42189;-72
2023/12/15 12:05:16;;;;;;;6.25;4.22;;;;;;;;;;5058756;28;40753;-72
2023/12/15 12:07:45;;;;;;;7.95;4.90;;;;;;;;;;5060175;28;41867;-76
2023/12/15 12:10:13;;;;;;;13.23;5.22;;;;;;;;;;5066253;28;42883;-74
2023/12/15 12:12:41;;;;;;;8.93;5.13;;;;;;;;;;5067741;28;41517;-75
2023/12/15 12:15:09;;;;;;;6.55;4.35;;;;;;;;;;5065631;28;41951;-74
2023/12/15 12:17:38;;;;;;;6.03;3.60;;;;;;;;;;5061090;28;40289;-75
2023/12/15 12:20:07;;;;;;;10.27;4.82;;;;;;;;;;5061933;28;41130;-76
2023/12/15 12:22:36;;;;;;;12.80;5.00;;;;;;;;;;5060850;28;41683;-72
2023/12/15 12:25:07;;;;;;;9.23;4.70;;;;;;;;;;5062565;28;40825;-72
2023/12/15 12:27:35;;;;;;;12.98;5.13;;;;;;;;;;5057397;28;41286;-72
2023/12/15 12:30:03;;;;;;;9.73;4.55;;;;;;;;;;5061708;28;42625;-72
2023/12/15 12:32:32;;;;;;;6.20;4.00;;;;;;;;;;5067077;28;42260;-72
2023/12/15 12:34:59;;;;;;;10.27;4.03;;;;;;;;;;5065304;28;41771;-77
2023/12/15 12:37:27;;;;;;;11.32;4.28;;;;;;;;;;5060073;28;41776;-75
2023/12/15 12:39:55;;;;;;;11.15;4.38;;;;;;;;;;5050744;28;41322;-73
2023/12/15 12:42:26;;;;;;;6.65;3.60;;;;;;;;;;5066408;28;41701;-74
2023/12/15 12:44:54;;;;;;;13.38;4.40;;;;;;;;;;5072694;28;39263;-73
2023/12/15 12:47:22;;;;;;;6.35;3.70;;;;;;;;;;5066506;28;42539;-73
2023/12/15 12:49:53;;;;;;;9.60;4.25;;;;;;;;;;5054543;28;42076;-74
2023/12/15 12:52:21;;;;;;;9.23;3.83;;;;;;;;;;5067624;28;41105;-73
2023/12/15 12:54:50;;;;;;;5.82;3.45;;;;;;;;;;5064040;28;41748;-73
2023/12/15 12:57:17;;;;;;;8.80;3.83;;;;;;;;;;5064651;28;39930;-76
2023/12/15 12:59:47;;;;;;;10.48;4.40;;;;;;;;;;5061935;28;43075;-75
2023/12/15 13:02:15;;;;;;;8.80;3.67;;;;;;;;;;5063895;28;41777;-76
2023/12/15 13:04:49;;;;;;;10.55;4.38;;;;;;;;;;5061018;28;41072;-76
2023/12/15 13:07:17;;;;;;;9.63;3.80;;;;;;;;;;5063669;28;42159;-76
2023/12/15 13:09:45;;;;;;;8.00;3.95;;;;;;;;;;5060918;28;41983;-76
2023/12/15 13:12:17;;;;;;;9.23;3.80;;;;;;;;;;5065863;28;40669;-76
2023/12/15 13:14:47;;;;;;;7.90;4.07;;;;;;;;;;5063924;28;41523;-76
2023/12/15 13:17:15;;;;;;;8.80;3.85;;;;;;;;;;5065889;28;40873;-75
2023/12/15 13:19:44;;;;;;;8.35;3.83;;;;;;;;;;5064537;28;42667;-76
2023/12/15 13:22:12;;;;;;;7.45;4.30;;;;;;;;;;5065672;28;42239;-76
2023/12/15 13:24:40;;;;;;;7.38;3.30;;;;;;;;;;5073051;28;40285;-75
2023/12/15 13:27:24;;;;;;;7.82;3.30;;;;;;;;;;5058608;28;42592;-76
2023/12/15 13:29:53;;;;;;;9.48;3.38;;;;;;;;;;5071423;28;42668;-76
2023/12/15 13:32:21;;;;;;;6.32;3.50;;;;;;;;;;5085658;28;40910;-76
2023/12/15 13:34:49;;;;;;;5.60;3.22;;;;;;;;;;5064743;28;41443;-76
2023/12/15 13:37:17;;;;;;;7.35;3.45;;;;;;;;;;5065745;28;42036;-76
2023/12/15 13:39:45;;;;;;;6.85;3.35;;;;;;;;;;5063594;28;41673;-75
2023/12/15 13:42:13;;;;;;;7.60;3.92;;;;;;;;;;5077157;28;42205;-76
2023/12/15 13:44:42;;;;;;;5.13;3.42;;;;;;;;;;5064650;28;39978;-75
2023/12/15 13:47:11;;;;;;;7.15;2.97;;;;;;;;;;5076475;28;41729;-76
2023/12/15 13:49:39;;;;;;;7.93;4.07;;;;;;;;;;5067248;28;41626;-76
2023/12/15 13:52:07;;;;;;;5.78;3.17;;;;;;;;;;5069840;28;40839;-76
2023/12/15 13:54:35;;;;;;;8.70;3.95;;;;;;;;;;5049586;28;40603;-76
2023/12/15 13:57:03;;;;;;;7.75;4.15;;;;;;;;;;5076084;28;42275;-76
2023/12/15 13:59:31;;;;;;;5.80;2.78;;;;;;;;;;5074815;28;40240;-76
2023/12/15 14:01:59;;;;;;;11.40;3.65;;;;;;;;;;5056603;28;42769;-75
2023/12/15 14:04:29;;;;;;;9.05;4.20;;;;;;;;;;5062498;28;40124;-73
2023/12/15 14:06:59;;;;;;;8.80;3.70;;;;;;;;;;5068552;28;42497;-74
2023/12/15 14:09:27;;;;;;;6.43;4.05;;;;;;;;;;5064163;28;41926;-75
2023/12/15 14:11:56;;;;;;;10.85;3.80;;;;;;;;;;5068948;28;40461;-74
2023/12/15 14:14:24;;;;;;;6.90;3.38;;;;;;;;;;5041448;28;39971;-72
2023/12/15 14:16:52;;;;;;;6.93;3.50;;;;;;;;;;5065831;28;43276;-73
2023/12/15 14:19:21;;;;;;;8.52;3.63;;;;;;;;;;5058625;28;41376;-74
2023/12/15 14:21:50;;;;;;;6.85;3.88;;;;;;;;;;5069388;28;41790;-73
2023/12/15 14:24:18;;;;;;;4.90;2.75;;;;;;;;;;5061813;28;41626;-72
2023/12/15 14:26:46;;;;;;;6.03;2.92;;;;;;;;;;5069923;28;41413;-72
2023/12/15 14:29:15;;;;;;;10.10;3.50;;;;;;;;;;5066673;28;42369;-73
2023/12/15 14:31:42;;;;;;;7.75;3.53;;;;;;;;;;5058542;28;39982;-74
2023/12/15 14:34:10;;;;;;;9.40;3.40;;;;;;;;;;5063857;28;42717;-75
2023/12/15 14:36:39;;;;;;;9.20;3.78;;;;;;;;;;5054385;28;43039;-70
2023/12/15 14:39:08;;;;;;;9.68;3.60;;;;;;;;;;5065916;28;40735;-72
2023/12/15 14:41:36;;;;;;;7.25;2.95;;;;;;;;;;5056601;28;42665;-73